createdAt,value
2017-10-26T00:00:58.775Z,35.60
2017-10-26T00:05:02.205Z,35.27
2017-10-26T00:09:05.686Z,39.13
2017-10-26T00:13:09.956Z,36.73
2017-10-26T00:17:13.407Z,37.87
2017-10-26T00:21:17.590Z,39.67
2017-10-26T00:25:21.030Z,38.80
2017-10-26T00:29:25.218Z,34.33
2017-10-26T00:33:28.669Z,40.97
2017-10-26T00:37:32.854Z,39.13
2017-10-26T00:41:36.313Z,42.00
2017-10-26T00:45:40.502Z,43.40
2017-10-26T00:49:43.943Z,41.27
2017-10-26T00:53:48.133Z,44.10
2017-10-26T00:57:51.884Z,41.23
2017-10-26T01:01:55.286Z,45.27
2017-10-26T01:05:59.819Z,42.40
2017-10-26T01:10:03.195Z,42.60
2017-10-26T01:14:06.612Z,46.37
2017-10-26T01:18:10.035Z,42.57
2017-10-26T01:22:14.274Z,40.90
2017-10-26T01:26:17.679Z,40.03
2017-10-26T01:30:21.366Z,41.40
2017-10-26T01:34:25.519Z,41.27
2017-10-26T01:38:28.939Z,40.10
2017-10-26T01:42:32.339Z,43.10
2017-10-26T01:46:36.030Z,42.60
2017-10-26T01:50:39.422Z,39.03
2017-10-26T01:54:43.675Z,40.00
2017-10-26T01:58:47.054Z,39.00
2017-10-26T02:02:51.562Z,38.80
2017-10-26T02:06:54.963Z,37.77
2017-10-26T02:10:58.719Z,40.03
2017-10-26T02:15:02.152Z,42.43
2017-10-26T02:19:05.842Z,40.47
2017-10-26T02:23:09.251Z,41.00
2017-10-26T02:27:13.468Z,38.67
2017-10-26T02:31:34.560Z,37.60
2017-10-26T02:35:37.999Z,42.50
2017-10-26T02:39:41.420Z,39.83
2017-10-26T02:43:44.872Z,41.87
2017-10-26T02:47:48.288Z,36.80
2017-10-26T02:51:51.744Z,41.73
2017-10-26T02:55:55.192Z,41.37
2017-10-26T02:59:58.659Z,39.50
2017-10-26T03:04:02.097Z,43.30
2017-10-26T03:08:05.555Z,41.30
2017-10-26T03:12:08.969Z,43.27
2017-10-26T03:16:12.398Z,36.63
2017-10-26T03:20:15.824Z,42.00
2017-10-26T03:24:19.670Z,38.03
2017-10-26T03:28:23.855Z,39.60
2017-10-26T03:32:27.615Z,39.43
2017-10-26T03:36:31.041Z,38.77
2017-10-26T03:40:34.490Z,38.00
2017-10-26T03:44:37.922Z,37.20
2017-10-26T03:48:41.359Z,37.90
2017-10-26T03:52:44.778Z,39.60
2017-10-26T03:56:48.240Z,36.07
2017-10-26T04:00:51.648Z,38.97
2017-10-26T04:04:55.877Z,37.57
2017-10-26T04:09:00.069Z,39.37
2017-10-26T04:13:03.568Z,34.93
2017-10-26T04:17:07.003Z,35.23
2017-10-26T04:21:10.447Z,34.07
2017-10-26T04:25:13.864Z,35.70
2017-10-26T04:29:17.620Z,34.80
2017-10-26T04:33:21.033Z,34.40
2017-10-26T04:37:24.778Z,34.07
2017-10-26T04:41:28.191Z,30.87
2017-10-26T04:45:31.668Z,32.10
2017-10-26T04:49:35.848Z,35.87
2017-10-26T04:53:39.625Z,32.83
2017-10-26T04:57:43.034Z,32.33
2017-10-26T05:01:46.532Z,33.40
2017-10-26T05:05:50.719Z,34.67
2017-10-26T05:09:54.200Z,29.37
2017-10-26T05:13:58.392Z,30.20
2017-10-26T05:18:02.610Z,33.07
2017-10-26T05:22:06.807Z,31.97
2017-10-26T05:26:10.331Z,32.17
2017-10-26T05:30:13.746Z,31.00
2017-10-26T05:34:17.942Z,34.80
2017-10-26T05:38:21.338Z,30.47
2017-10-26T05:42:25.063Z,32.53
2017-10-26T05:46:28.471Z,30.70
2017-10-26T05:50:31.921Z,29.07
2017-10-26T05:54:35.339Z,31.00
2017-10-26T05:58:38.797Z,30.67
2017-10-26T06:02:42.223Z,31.90
2017-10-26T06:06:46.436Z,31.57
2017-10-26T06:10:50.622Z,32.70
2017-10-26T06:14:54.065Z,31.17
2017-10-26T06:18:58.275Z,33.50
2017-10-26T06:23:01.720Z,31.33
2017-10-26T06:27:05.143Z,31.87
2017-10-26T06:31:08.615Z,31.40
2017-10-26T06:35:12.806Z,29.50
2017-10-26T06:39:16.259Z,29.43
2017-10-26T06:43:20.424Z,31.23
2017-10-26T06:47:24.206Z,30.93
2017-10-26T06:51:27.619Z,29.17
2017-10-26T06:55:31.069Z,27.00
2017-10-26T06:59:34.495Z,26.57
2017-10-26T07:03:37.935Z,29.50
2017-10-26T07:07:41.345Z,28.13
2017-10-26T07:11:44.787Z,26.77
2017-10-26T07:15:48.208Z,29.63
2017-10-26T07:19:51.964Z,30.47
2017-10-26T07:23:55.405Z,26.13
2017-10-26T07:27:58.842Z,26.47
2017-10-26T07:32:02.252Z,25.87
2017-10-26T07:36:05.964Z,26.50
2017-10-26T07:40:09.375Z,24.70
2017-10-26T07:44:13.126Z,26.17
2017-10-26T07:48:16.543Z,25.97
2017-10-26T07:52:19.987Z,25.90
2017-10-26T07:56:23.408Z,26.87
2017-10-26T08:00:26.848Z,25.47
2017-10-26T08:04:30.282Z,26.33
2017-10-26T08:08:34.000Z,22.80
2017-10-26T08:12:37.507Z,23.40
2017-10-26T08:16:40.959Z,21.20
2017-10-26T08:20:45.115Z,23.60
2017-10-26T08:24:49.324Z,23.70
2017-10-26T08:28:52.750Z,25.53
2017-10-26T08:32:56.197Z,26.20
2017-10-26T08:36:59.620Z,25.50
2017-10-26T08:41:03.359Z,23.57
2017-10-26T08:45:06.769Z,24.30
2017-10-26T08:49:10.223Z,23.03
2017-10-26T08:53:13.641Z,23.43
2017-10-26T08:57:17.071Z,24.07
2017-10-26T09:01:20.489Z,22.50
2017-10-26T09:05:23.917Z,24.13
2017-10-26T09:09:27.318Z,22.07
2017-10-26T09:13:30.771Z,22.70
2017-10-26T09:17:34.190Z,23.40
2017-10-26T09:21:38.391Z,23.73
2017-10-26T09:25:41.788Z,22.27
2017-10-26T09:29:45.259Z,21.90
2017-10-26T09:33:48.683Z,21.93
2017-10-26T09:37:52.112Z,21.60
2017-10-26T09:41:55.520Z,23.60
2017-10-26T09:45:58.944Z,18.23
2017-10-26T09:50:02.344Z,22.50
2017-10-26T09:54:05.808Z,19.23
2017-10-26T09:58:09.218Z,19.33
2017-10-26T10:02:12.673Z,20.10
2017-10-26T10:06:16.091Z,17.30
2017-10-26T10:10:20.295Z,18.00
2017-10-26T10:14:23.698Z,17.60
2017-10-26T10:18:27.143Z,14.67
2017-10-26T10:22:30.547Z,13.10
2017-10-26T10:26:34.029Z,12.47
2017-10-26T10:30:38.216Z,15.10
2017-10-26T10:34:41.640Z,13.03
2017-10-26T10:38:45.051Z,12.20
2017-10-26T10:42:48.476Z,11.97
2017-10-26T10:46:52.646Z,10.83
2017-10-26T10:50:56.105Z,12.00
2017-10-26T10:55:00.271Z,12.13
2017-10-26T10:59:09.192Z,11.40
2017-10-26T11:03:12.588Z,11.90
2017-10-26T11:07:16.034Z,12.97
2017-10-26T11:11:19.423Z,13.33
2017-10-26T11:15:22.846Z,13.70
2017-10-26T11:19:26.256Z,12.70
2017-10-26T11:23:29.687Z,14.00
2017-10-26T11:27:33.094Z,14.70
2017-10-26T11:31:36.531Z,15.20
2017-10-26T11:35:39.977Z,15.00
2017-10-26T11:39:44.144Z,11.80
2017-10-26T11:43:48.337Z,11.60
2017-10-26T11:47:51.775Z,12.70
2017-10-26T11:51:55.952Z,11.97
2017-10-26T11:55:59.379Z,12.20
2017-10-26T12:00:02.769Z,9.37
2017-10-26T12:04:06.235Z,10.17
2017-10-26T12:08:09.738Z,11.10
2017-10-26T12:12:13.286Z,8.83
2017-10-26T12:16:16.736Z,9.77
2017-10-26T12:20:21.021Z,9.43
2017-10-26T12:24:24.502Z,9.50
2017-10-26T12:28:27.996Z,9.60
2017-10-26T12:32:31.452Z,8.97
2017-10-26T12:36:35.292Z,9.30
2017-10-26T12:40:38.723Z,9.30
2017-10-26T12:44:43.198Z,13.00
2017-10-26T12:48:46.604Z,19.40
2017-10-26T12:52:50.059Z,13.67
2017-10-26T12:56:54.217Z,11.40
2017-10-26T13:00:57.662Z,11.93
2017-10-26T13:05:01.096Z,12.10
2017-10-26T13:09:05.630Z,10.00
2017-10-26T13:13:09.796Z,11.47
2017-10-26T13:17:13.248Z,12.90
2017-10-26T13:21:16.633Z,13.13
2017-10-26T13:25:20.396Z,12.40
2017-10-26T13:29:23.821Z,11.20
2017-10-26T13:33:27.292Z,13.23
2017-10-26T13:37:31.466Z,14.30
2017-10-26T13:41:34.909Z,13.67
2017-10-26T13:45:38.360Z,15.13
2017-10-26T13:49:41.822Z,15.30
2017-10-26T13:53:46.003Z,14.77
2017-10-26T13:57:49.446Z,13.90
2017-10-26T14:01:52.859Z,12.97
2017-10-26T14:05:56.307Z,14.67
2017-10-26T14:09:59.834Z,13.57
2017-10-26T14:14:03.287Z,12.30
2017-10-26T14:18:07.478Z,12.67
2017-10-26T14:22:10.926Z,16.27
2017-10-26T14:26:15.156Z,14.93
2017-10-26T14:30:19.374Z,13.87
2017-10-26T14:34:22.799Z,14.50
2017-10-26T14:38:26.267Z,16.80
2017-10-26T14:42:29.697Z,17.50
2017-10-26T14:46:33.967Z,17.13
2017-10-26T14:50:37.362Z,16.77
2017-10-26T14:54:40.815Z,16.50
2017-10-26T14:58:45.020Z,14.70
2017-10-26T15:02:48.452Z,14.97
2017-10-26T15:06:51.881Z,14.10
2017-10-26T15:13:16.888Z,16.17
2017-10-26T15:17:20.370Z,15.20
2017-10-26T15:21:23.909Z,17.00
2017-10-26T15:25:27.365Z,16.00
2017-10-26T15:29:30.880Z,13.93
2017-10-26T15:33:34.613Z,15.13
2017-10-26T15:37:38.102Z,15.10
2017-10-26T15:45:07.978Z,20.53
2017-10-26T15:51:11.467Z,16.17
2017-10-26T15:57:15.100Z,24.43
2017-10-26T16:03:18.702Z,15.33
2017-10-26T16:09:22.957Z,21.00
2017-10-26T16:15:26.565Z,18.30
2017-10-26T16:21:30.043Z,24.60
2017-10-26T16:27:33.556Z,16.67
2017-10-26T16:33:37.057Z,16.97
2017-10-26T16:39:40.588Z,14.33
2017-10-26T16:45:45.020Z,14.90
2017-10-26T16:51:49.651Z,17.13
2017-10-26T16:57:53.470Z,31.23
2017-10-26T17:03:58.045Z,26.57
2017-10-26T17:10:02.348Z,21.43
2017-10-26T17:16:06.319Z,19.53
2017-10-26T17:22:09.819Z,19.20
2017-10-26T17:28:13.824Z,22.27
2017-10-26T17:34:17.458Z,18.70
2017-10-26T17:40:21.712Z,19.50
2017-10-26T17:46:25.382Z,18.20
2017-10-26T17:52:28.999Z,18.93
2017-10-26T17:58:32.483Z,19.47
2017-10-26T18:04:35.968Z,18.90
2017-10-26T18:10:40.534Z,17.50
2017-10-26T18:16:45.170Z,18.13
2017-10-26T18:22:48.942Z,17.60
2017-10-26T18:28:52.436Z,20.77
2017-10-26T18:34:56.721Z,19.83
2017-10-26T18:41:00.387Z,19.20
2017-10-26T18:47:03.903Z,18.70
2017-10-26T18:53:07.384Z,19.47
2017-10-26T18:59:10.899Z,17.00
2017-10-26T19:05:14.439Z,20.60
2017-10-26T19:11:18.169Z,19.50
2017-10-26T19:17:21.663Z,19.10
2017-10-26T19:23:25.151Z,18.97
2017-10-26T19:29:29.389Z,18.37
2017-10-26T19:35:32.864Z,17.10
2017-10-26T19:41:37.394Z,16.77
2017-10-26T19:47:40.886Z,16.07
2017-10-26T19:53:44.509Z,26.03
2017-10-26T19:59:48.409Z,16.10
2017-10-26T20:05:52.682Z,19.60
2017-10-26T20:11:56.176Z,17.13
2017-10-26T20:17:59.673Z,17.67
2017-10-26T20:24:03.388Z,17.13
2017-10-26T20:30:07.116Z,16.80
2017-10-26T20:36:11.399Z,15.17
2017-10-26T20:42:15.734Z,15.20
2017-10-26T20:48:19.603Z,16.30
2017-10-26T20:54:28.667Z,17.70
2017-10-26T21:00:37.715Z,18.80
2017-10-26T21:06:41.194Z,20.37
2017-10-26T21:12:50.241Z,21.13
2017-10-26T21:18:54.697Z,19.23
2017-10-26T21:24:58.316Z,19.77
2017-10-26T21:31:01.809Z,19.20
2017-10-26T21:37:05.305Z,20.30
2017-10-26T21:43:08.796Z,19.10
2017-10-26T21:49:12.345Z,20.63
2017-10-26T21:55:16.040Z,20.37
2017-10-26T22:01:20.205Z,25.60
2017-10-26T22:07:23.693Z,22.70
2017-10-26T22:13:27.170Z,21.30
2017-10-26T22:19:30.695Z,24.13
2017-10-26T22:25:34.521Z,26.10
2017-10-26T22:31:38.006Z,26.53
2017-10-26T22:37:41.484Z,23.87
2017-10-26T22:43:44.973Z,24.43
2017-10-26T22:49:48.694Z,22.03
2017-10-26T22:55:52.942Z,20.80
2017-10-26T23:01:57.492Z,23.00
2017-10-26T23:08:00.973Z,23.37
2017-10-26T23:14:05.575Z,19.03
2017-10-26T23:20:09.141Z,16.40
2017-10-26T23:26:14.152Z,20.60
2017-10-26T23:32:18.469Z,17.93
2017-10-26T23:38:21.959Z,17.67
2017-10-26T23:44:25.459Z,18.87
2017-10-26T23:50:29.700Z,15.07
2017-10-26T23:56:33.443Z,15.53
